Time;durP1;ratioP1;P1;durP2;ratioP2;P2;SDS_P1;SDS_P2;PMS_P1;PMS_P2;Temp;Humidity;BMP_temperature;BMP_pressure;BME280_temperature;BME280_humidity;BME280_pressure;Samples;Min_cycle;Max_cycle;Signal;HPM_P1;HPM_P2
2023/11/05 00:02:51;;;;;;;38.80;20.33;;;5.20;99.90;;;;;;4844628;29;20220;-81
2023/11/05 00:06:17;;;;;;;;;;;;;;;;;;;;;
2023/11/05 00:09:52;;;;;;;36.37;19.07;;;5.10;99.90;;;;;;4936585;28;20321;-81
2023/11/05 00:12:52;;;;;;;33.83;19.17;;;5.10;99.90;;;;;;4947123;28;20302;-81
2023/11/05 00:15:55;;;;;;;38.80;19.83;;;5.00;99.90;;;;;;4970345;28;20699;-80
2023/11/05 00:19:11;;;;;;;39.07;21.20;;;5.10;99.90;;;;;;4955311;28;20250;-81
2023/11/05 00:22:37;;;;;;;41.00;21.23;;;5.10;99.90;;;;;;4974121;28;20190;-82
2023/11/05 00:25:37;;;;;;;44.77;23.00;;;5.10;99.90;;;;;;5011368;28;20638;-82
2023/11/05 00:28:33;;;;;;;41.40;22.40;;;5.10;99.90;;;;;;4998557;28;20361;-80
2023/11/05 00:35:08;;;;;;;44.90;24.07;;;5.10;99.90;;;;;;5011100;28;20204;-80
2023/11/05 00:38:23;;;;;;;44.30;24.23;;;5.10;99.90;;;;;;4995311;28;20187;-80
2023/11/05 00:41:47;;;;;;;42.27;24.00;;;5.10;99.90;;;;;;4996545;28;20607;-81
2023/11/05 00:44:59;;;;;;;45.80;23.93;;;5.00;99.90;;;;;;4914110;29;20207;-82
2023/11/05 00:48:09;;;;;;;45.17;24.30;;;5.00;99.90;;;;;;4918032;29;20230;-80
2023/11/05 00:50:58;;;;;;;50.77;26.37;;;5.00;99.90;;;;;;4933288;29;20284;-82
2023/11/05 00:53:41;;;;;;;48.47;25.93;;;4.90;99.90;;;;;;4931917;29;20222;-84
2023/11/05 00:56:42;;;;;;;50.00;27.23;;;4.80;99.90;;;;;;4930729;29;20280;-78
2023/11/05 01:13:21;;;;;;;57.77;29.30;;;5.10;99.90;;;;;;4890196;29;20207;-80
2023/11/05 01:16:02;;;;;;;51.53;28.60;;;4.90;99.90;;;;;;4916756;29;20201;-80
2023/11/05 01:19:04;;;;;;;55.60;30.13;;;5.10;99.90;;;;;;4918264;29;20874;-80
2023/11/05 01:31:48;;;;;;;53.00;27.23;;;5.30;99.90;;;;;;4813801;29;20234;-82
2023/11/05 01:35:24;;;;;;;50.80;27.10;;;5.00;99.90;;;;;;4783003;29;20233;-80
2023/11/05 01:39:30;;;;;;;;;;;;;;;;;;;;;
2023/11/05 01:46:33;;;;;;;;;;;;;;;;;;;;;
2023/11/05 01:49:53;;;;;;;53.97;27.63;;;5.10;99.90;;;;;;4653067;30;20247;-78
2023/11/05 01:53:37;;;;;;;51.67;25.97;;;5.20;99.90;;;;;;4678541;30;20206;-79
2023/11/05 01:56:44;;;;;;;52.67;27.10;;;5.20;99.90;;;;;;4677733;30;20217;-88
2023/11/05 01:59:53;;;;;;;49.13;25.33;;;5.30;99.90;;;;;;4681046;30;20660;-78
2023/11/05 02:02:41;;;;;;;53.63;26.50;;;5.50;99.90;;;;;;4665578;30;20210;-86
2023/11/05 02:05:48;;;;;;;50.93;24.90;;;5.30;99.90;;;;;;4698000;30;20217;-87
2023/11/05 02:08:53;;;;;;;;;;;;;;;;;;;;;
2023/11/05 02:12:29;;;;;;;;;;;;;;;;;;;;;
2023/11/05 02:16:17;;;;;;;45.90;24.83;;;5.30;99.90;;;;;;4740120;30;20192;-80
2023/11/05 02:19:58;;;;;;;;;;;;;;;;;;;;;
2023/11/05 02:53:15;;;;;;;;;;;;;;;;;;;;;
2023/11/05 03:10:26;;;;;;;49.23;24.90;;;5.30;99.90;;;;;;5827887;24;20303;-80
2023/11/05 03:14:03;;;;;;;52.50;25.80;;;5.40;99.90;;;;;;5800396;24;20169;-81
2023/11/05 03:17:36;;;;;;;;;;;;;;;;;;;;;
2023/11/05 03:21:28;;;;;;;48.30;25.03;;;5.30;99.90;;;;;;5754479;24;20176;-80
2023/11/05 03:25:47;;;;;;;;;;;;;;;;;;;;;
2023/11/05 03:42:26;;;;;;;44.88;21.45;;;5.30;99.90;;;;;;5585272;22;15826864;-80
2023/11/05 04:05:47;;;;;;;43.73;22.63;;;5.50;99.90;;;;;;6016649;23;20164;-79
2023/11/05 04:09:56;;;;;;;48.33;22.40;;;5.40;99.90;;;;;;5981447;23;20210;-78
2023/11/05 04:12:52;;;;;;;44.27;21.63;;;5.50;99.90;;;;;;5955896;24;20161;-80
2023/11/05 04:15:50;;;;;;;41.83;21.67;;;5.50;99.90;;;;;;6008243;23;20160;-79
2023/11/05 04:31:59;;;;;;;;;;;;;;;;;;;;;
2023/11/05 04:35:14;;;;;;;;;;;;;;;;;;;;;
2023/11/05 04:38:37;;;;;;;;;;;;;;;;;;;;;
2023/11/05 04:42:09;;;;;;;38.03;20.70;;;5.50;99.90;;;;;;5086889;27;20220;-80
2023/11/05 04:57:25;;;;;;;39.50;19.57;;;5.60;99.90;;;;;;4928670;29;20668;-80
2023/11/05 05:00:04;;;;;;;34.33;18.77;;;5.80;99.90;;;;;;4911829;29;20244;-79
2023/11/05 05:02:47;;;;;;;34.90;18.17;;;5.50;99.90;;;;;;4914793;29;20301;-78
2023/11/05 05:05:57;;;;;;;36.85;18.83;;;5.80;99.90;;;;;;4817792;27;6713171;-79
2023/11/05 05:08:51;;;;;;;33.57;16.93;;;5.60;99.90;;;;;;5028658;28;20228;-79
2023/11/05 05:11:36;;;;;;;33.83;17.53;;;5.60;99.90;;;;;;5035303;28;20193;-79
2023/11/05 05:14:20;;;;;;;32.20;16.20;;;5.60;99.90;;;;;;5033170;28;20652;-80
2023/11/05 05:16:55;;;;;;;32.80;16.00;;;5.70;99.90;;;;;;5031834;28;20275;-79
2023/11/05 05:20:04;;;;;;;;;;;;;;;;;;;;;
2023/11/05 05:23:49;;;;;;;44.40;17.50;;;5.60;99.90;;;;;;4961288;28;20185;-81
2023/11/05 05:26:52;;;;;;;28.90;15.00;;;5.70;99.90;;;;;;4951273;28;20215;-81
2023/11/05 05:29:46;;;;;;;29.07;14.50;;;5.70;99.90;;;;;;4950831;28;20205;-79
2023/11/05 05:32:25;;;;;;;29.17;14.90;;;5.70;99.90;;;;;;4950844;28;20302;-79
2023/11/05 05:43:51;;;;;;;27.40;13.27;;;5.80;99.90;;;;;;4837033;29;20228;-81
2023/11/05 05:50:35;;;;;;;27.43;13.40;;;5.60;99.90;;;;;;4691474;30;20210;-80
2023/11/05 05:53:11;;;;;;;28.33;13.97;;;5.80;99.90;;;;;;4732428;30;20195;-78
2023/11/05 05:56:56;;;;;;;;;;;;;;;;;;;;;
2023/11/05 06:03:22;;;;;;;24.77;12.40;;;5.90;99.90;;;;;;4674368;30;20410;-79
2023/11/05 06:06:20;;;;;;;24.30;12.43;;;5.90;99.90;;;;;;4672195;30;20239;-78
2023/11/05 06:10:23;;;;;;;;;;;;;;;;;;;;;
2023/11/05 06:18:29;;;;;;;21.07;11.30;;;6.00;99.90;;;;;;5023184;28;20194;-80
2023/11/05 06:38:52;;;;;;;20.53;11.27;;;6.00;99.90;;;;;;4855234;29;20198;-81
2023/11/05 07:17:31;;;;;;;;;;;;;;;;;;;;;
2023/11/05 08:01:32;;;;;;;14.67;8.27;;;7.30;99.90;;;;;;5592367;22;15351947;-80
2023/11/05 08:39:18;;;;;;;;;;;;;;;;;;;;;
2023/11/05 08:46:48;;;;;;;11.23;6.47;;;7.90;99.90;;;;;;6061226;23;20650;-78
2023/11/05 08:50:34;;;;;;;10.17;5.70;;;8.00;99.90;;;;;;5940996;24;20196;-79
2023/11/05 08:53:39;;;;;;;9.73;6.07;;;8.10;99.90;;;;;;5847952;24;20167;-78
2023/11/05 08:56:59;;;;;;;10.77;5.70;;;8.10;99.90;;;;;;5841632;24;20585;-80
2023/11/05 08:59:32;;;;;;;11.17;5.40;;;8.10;99.90;;;;;;5790562;24;20709;-78
2023/11/05 09:03:06;;;;;;;9.87;5.47;;;8.10;99.90;;;;;;5771462;24;20192;-78
2023/11/05 09:05:58;;;;;;;12.00;5.30;;;8.30;99.90;;;;;;5787753;24;20173;-78
2023/11/05 09:08:49;;;;;;;12.17;5.40;;;8.30;99.90;;;;;;5811081;24;20313;-78
2023/11/05 09:11:43;;;;;;;9.77;5.30;;;8.40;99.90;;;;;;5748979;24;20168;-79
2023/11/05 09:15:00;;;;;;;9.63;5.20;;;8.40;99.90;;;;;;5822958;24;20166;-81
2023/11/05 09:17:47;;;;;;;10.33;5.10;;;8.50;99.90;;;;;;5801119;24;20224;-81
2023/11/05 09:28:18;;;;;;;10.07;4.83;;;8.70;99.90;;;;;;5731805;24;20174;-80
2023/11/05 10:15:29;;;;;;;;;;;;;;;;;;;;;
2023/11/05 10:18:42;;;;;;;8.00;4.63;;;9.20;99.90;;;;;;6009775;23;20210;-80
2023/11/05 10:21:17;;;;;;;8.37;4.87;;;8.80;99.90;;;;;;6014342;23;20179;-80
2023/11/05 10:23:55;;;;;;;9.60;4.80;;;9.30;99.90;;;;;;6014775;23;20204;-80
2023/11/05 10:26:45;;;;;;;9.50;5.10;;;9.40;99.90;;;;;;6014226;23;20690;-80
2023/11/05 10:29:14;;;;;;;9.17;4.93;;;9.10;99.90;;;;;;6011719;23;20190;-80
2023/11/05 10:31:50;;;;;;;9.20;4.90;;;9.20;99.90;;;;;;5985761;23;20555;-81
2023/11/05 10:34:20;;;;;;;9.43;5.20;;;9.10;99.90;;;;;;6014584;23;20202;-81
2023/11/05 10:37:07;;;;;;;9.33;5.30;;;9.10;99.90;;;;;;5989380;23;20206;-82
2023/11/05 10:39:40;;;;;;;12.60;5.60;;;9.10;99.90;;;;;;6014227;23;20179;-81
2023/11/05 10:42:22;;;;;;;11.17;5.20;;;9.30;99.90;;;;;;6008992;23;20171;-81
2023/11/05 10:44:53;;;;;;;9.00;5.00;;;9.00;99.90;;;;;;5984096;23;20262;-81
2023/11/05 10:47:26;;;;;;;10.07;5.40;;;9.20;99.90;;;;;;5984649;23;20184;-81
2023/11/05 10:49:58;;;;;;;11.30;5.30;;;9.10;99.90;;;;;;6007413;23;20667;-80
2023/11/05 10:52:37;;;;;;;10.57;5.50;;;9.10;99.90;;;;;;6008097;23;20183;-79
2023/11/05 10:55:10;;;;;;;9.23;5.10;;;9.10;99.90;;;;;;6114573;23;20614;-81
2023/11/05 10:58:19;;;;;;;9.20;5.37;;;9.10;99.90;;;;;;6149970;23;20226;-82
2023/11/05 11:01:04;;;;;;;8.47;5.57;;;9.10;99.90;;;;;;6128883;23;20183;-82
2023/11/05 11:03:43;;;;;;;9.57;5.23;;;9.20;99.90;;;;;;6151069;23;20275;-82
2023/11/05 11:06:24;;;;;;;9.53;5.47;;;9.20;99.90;;;;;;6127114;23;20261;-80
2023/11/05 11:09:09;;;;;;;9.43;5.10;;;9.20;99.90;;;;;;6152582;23;20172;-81
2023/11/05 11:11:43;;;;;;;9.50;5.23;;;9.20;99.90;;;;;;6128346;23;20183;-80
2023/11/05 11:14:17;;;;;;;10.60;5.57;;;9.40;99.90;;;;;;6128503;23;20200;-81
2023/11/05 11:16:50;;;;;;;7.57;5.07;;;9.20;99.90;;;;;;6126483;23;20719;-81
2023/11/05 11:19:25;;;;;;;7.97;4.60;;;9.30;99.90;;;;;;6103844;23;20279;-81
2023/11/05 11:21:55;;;;;;;9.27;5.20;;;9.50;99.90;;;;;;6127587;23;20172;-80
2023/11/05 11:24:43;;;;;;;7.80;5.03;;;9.40;99.90;;;;;;6152828;23;20774;-80
2023/11/05 11:32:12;;;;;;;10.63;4.80;;;9.30;99.90;;;;;;5881671;24;20212;-80
2023/11/05 11:36:08;;;;;;;;;;;;;;;;;;;;;
2023/11/05 11:39:56;;;;;;;11.57;5.60;;;9.30;99.90;;;;;;5950452;24;20160;-80
2023/11/05 11:44:21;;;;;;;9.70;5.20;;;9.00;99.90;;;;;;5858153;24;20194;-83
2023/11/05 12:43:41;;;;;;;9.73;6.53;;;9.10;99.90;;;;;;5991983;23;20180;-87
2023/11/05 12:46:40;;;;;;;13.33;6.50;;;8.70;99.90;;;;;;5928380;24;20606;-81
2023/11/05 12:49:35;;;;;;;14.30;6.73;;;8.80;99.90;;;;;;5899235;24;20292;-79
2023/11/05 12:53:02;;;;;;;11.73;6.63;;;8.80;99.90;;;;;;5904324;24;20642;-81
2023/11/05 12:57:32;;;;;;;9.33;6.33;;;8.80;99.90;;;;;;5809833;24;20637;-82
2023/11/05 13:14:24;;;;;;;12.87;6.63;;;8.70;99.90;;;;;;5107899;27;20869;-80
2023/11/05 13:17:20;;;;;;;11.13;7.03;;;8.70;99.90;;;;;;5109410;28;20192;-81
2023/11/05 13:19:57;;;;;;;12.67;7.00;;;8.70;99.90;;;;;;5087708;28;20238;-80
2023/11/05 13:22:25;;;;;;;10.60;6.73;;;8.70;99.90;;;;;;5086215;28;20252;-80
2023/11/05 13:25:06;;;;;;;13.27;7.10;;;8.80;99.90;;;;;;5088781;28;20192;-80
2023/11/05 13:27:37;;;;;;;14.37;7.17;;;8.70;99.90;;;;;;5089076;28;20189;-81
2023/11/05 13:30:36;;;;;;;11.53;7.07;;;8.80;99.90;;;;;;5087318;28;20205;-81
2023/11/05 13:33:16;;;;;;;11.50;7.27;;;9.00;99.90;;;;;;5087349;28;20219;-81
2023/11/05 13:35:54;;;;;;;13.60;7.47;;;8.80;99.90;;;;;;5071803;28;20200;-80
2023/11/05 13:38:31;;;;;;;13.37;8.10;;;8.80;99.90;;;;;;5089477;28;20182;-80
2023/11/05 13:41:06;;;;;;;14.40;7.60;;;8.80;99.90;;;;;;5087083;28;20272;-87
2023/11/05 13:43:40;;;;;;;11.77;7.63;;;8.80;99.90;;;;;;5088319;28;20287;-80
2023/11/05 13:46:08;;;;;;;13.07;8.37;;;8.60;99.90;;;;;;5086416;28;20262;-80
2023/11/05 13:48:56;;;;;;;13.60;8.13;;;8.80;99.90;;;;;;5072837;28;20249;-87
2023/11/05 13:51:24;;;;;;;13.27;8.20;;;8.80;99.90;;;;;;5088684;28;20190;-86
2023/11/05 13:53:58;;;;;;;13.33;8.40;;;9.00;99.90;;;;;;5088487;28;20193;-79
2023/11/05 13:56:26;;;;;;;15.67;9.17;;;9.00;99.90;;;;;;5087400;28;20185;-80
2023/11/05 13:59:01;;;;;;;14.43;8.73;;;8.70;99.90;;;;;;5086914;28;20181;-80
2023/11/05 14:01:32;;;;;;;13.50;8.53;;;8.80;99.90;;;;;;5087889;28;20194;-80
2023/11/05 14:04:11;;;;;;;16.53;9.40;;;8.80;99.90;;;;;;5088503;28;20644;-86
2023/11/05 14:06:43;;;;;;;15.90;9.30;;;9.00;99.90;;;;;;5070299;28;20193;-85
2023/11/05 14:09:16;;;;;;;13.73;9.43;;;9.00;99.90;;;;;;5087123;28;20258;-79
2023/11/05 14:11:52;;;;;;;14.47;8.97;;;8.80;99.90;;;;;;5085528;28;20192;-80
2023/11/05 14:14:27;;;;;;;15.50;9.60;;;8.70;99.90;;;;;;5077921;28;20185;-78
2023/11/05 14:17:04;;;;;;;15.53;10.17;;;8.90;99.90;;;;;;5073984;28;20187;-83
2023/11/05 14:19:36;;;;;;;16.63;10.17;;;8.90;99.90;;;;;;5074223;28;20209;-85
2023/11/05 14:22:08;;;;;;;16.03;10.00;;;9.00;99.90;;;;;;5073017;28;20219;-76
2023/11/05 14:24:37;;;;;;;15.80;10.20;;;9.20;99.90;;;;;;5072847;28;20194;-84
2023/11/05 14:27:07;;;;;;;16.77;10.13;;;9.10;99.90;;;;;;5072981;28;20198;-78
2023/11/05 14:29:35;;;;;;;16.50;10.30;;;8.90;99.90;;;;;;5074038;28;20202;-77
2023/11/05 14:32:08;;;;;;;17.43;11.13;;;8.90;99.90;;;;;;5073012;28;20584;-77
2023/11/05 14:34:45;;;;;;;18.17;11.10;;;8.90;99.90;;;;;;5073608;28;20214;-84
2023/11/05 14:37:14;;;;;;;19.07;11.50;;;8.90;99.90;;;;;;5053211;28;20198;-84
2023/11/05 14:39:45;;;;;;;18.73;11.60;;;8.90;99.90;;;;;;5053744;28;20198;-84
2023/11/05 14:42:22;;;;;;;17.57;11.67;;;8.90;99.90;;;;;;5054091;28;20218;-76
2023/11/05 14:45:07;;;;;;;20.87;11.93;;;8.90;99.90;;;;;;5051951;28;20571;-77
2023/11/05 14:47:59;;;;;;;19.60;12.13;;;8.90;99.90;;;;;;5052389;28;20362;-77
2023/11/05 14:50:37;;;;;;;19.63;12.50;;;9.10;99.90;;;;;;5052983;28;20196;-78
2023/11/05 14:53:09;;;;;;;17.53;11.67;;;8.90;99.90;;;;;;5052970;28;20244;-85
2023/11/05 14:55:40;;;;;;;19.60;12.73;;;9.00;99.90;;;;;;5035720;28;20199;-84
2023/11/05 14:58:08;;;;;;;18.77;12.17;;;9.00;99.90;;;;;;5051862;28;20256;-76
2023/11/05 15:00:37;;;;;;;20.83;12.40;;;9.00;99.90;;;;;;5052671;28;20194;-77
2023/11/05 15:03:07;;;;;;;19.50;12.50;;;8.90;99.90;;;;;;5010165;28;20313;-78
2023/11/05 15:05:47;;;;;;;19.60;11.97;;;8.90;99.90;;;;;;5011310;28;20207;-76
2023/11/05 15:08:20;;;;;;;18.93;12.67;;;9.10;99.90;;;;;;5010462;28;20363;-77
2023/11/05 15:10:51;;;;;;;20.63;12.53;;;8.80;99.90;;;;;;5010673;28;20565;-77
2023/11/05 15:13:22;;;;;;;19.17;12.33;;;9.20;99.90;;;;;;4994077;28;20328;-77
2023/11/05 15:15:56;;;;;;;19.07;12.53;;;9.00;99.90;;;;;;5010627;28;20613;-77
2023/11/05 15:18:29;;;;;;;21.80;12.63;;;9.00;99.90;;;;;;5010421;28;20738;-78
2023/11/05 15:20:57;;;;;;;22.27;12.97;;;8.90;99.90;;;;;;5025924;28;20202;-78
2023/11/05 15:23:30;;;;;;;19.53;13.13;;;9.10;99.90;;;;;;5052907;28;20229;-77
2023/11/05 15:25:58;;;;;;;20.17;12.70;;;9.30;99.90;;;;;;5060077;28;20197;-78
2023/11/05 15:28:35;;;;;;;18.80;12.60;;;9.10;99.90;;;;;;5052497;28;20190;-78
2023/11/05 15:31:10;;;;;;;23.03;13.57;;;9.10;99.90;;;;;;5052503;28;20594;-78
2023/11/05 15:34:02;;;;;;;18.13;11.87;;;9.00;99.90;;;;;;5050199;28;20325;-77
2023/11/05 15:36:47;;;;;;;20.23;12.77;;;9.10;99.90;;;;;;5049731;28;20199;-78
2023/11/05 15:39:16;;;;;;;21.40;13.07;;;9.00;99.90;;;;;;5051851;28;20198;-78
2023/11/05 15:41:45;;;;;;;18.37;12.70;;;9.00;99.90;;;;;;5052041;28;20273;-85
2023/11/05 15:44:20;;;;;;;22.47;13.53;;;9.20;99.90;;;;;;5052459;28;20238;-85
2023/11/05 15:46:53;;;;;;;20.93;12.77;;;9.20;99.90;;;;;;5052725;28;20186;-86
2023/11/05 15:49:26;;;;;;;20.40;12.67;;;9.00;99.90;;;;;;5052410;28;20210;-85
2023/11/05 15:52:01;;;;;;;21.50;13.27;;;9.20;99.90;;;;;;5068305;28;20191;-77
2023/11/05 15:54:30;;;;;;;22.10;13.43;;;9.00;99.90;;;;;;5052212;28;20186;-78
2023/11/05 15:57:02;;;;;;;21.23;13.53;;;9.10;99.90;;;;;;5051072;28;20189;-78
2023/11/05 15:59:30;;;;;;;21.70;13.30;;;9.10;99.90;;;;;;5051953;28;20182;-78
2023/11/05 16:02:01;;;;;;;19.43;12.73;;;9.10;99.90;;;;;;5052234;28;20179;-86
2023/11/05 16:04:29;;;;;;;21.70;13.90;;;9.10;99.90;;;;;;5052192;28;20293;-85
2023/11/05 16:07:03;;;;;;;20.83;13.17;;;9.10;99.90;;;;;;5051435;28;20187;-78
2023/11/05 16:09:39;;;;;;;22.50;14.13;;;9.10;99.90;;;;;;5053173;28;20465;-87
2023/11/05 16:12:08;;;;;;;22.27;13.77;;;9.10;99.90;;;;;;5050564;28;20194;-87
2023/11/05 16:14:38;;;;;;;22.80;14.07;;;9.10;99.90;;;;;;5053099;28;20252;-78
2023/11/05 16:17:07;;;;;;;20.63;13.10;;;9.10;99.90;;;;;;5050349;28;20205;-80
2023/11/05 16:19:35;;;;;;;21.87;12.83;;;9.20;99.90;;;;;;5050325;28;20218;-79
2023/11/05 16:22:09;;;;;;;20.83;13.77;;;9.20;99.90;;;;;;5052282;28;20217;-87
2023/11/05 16:24:37;;;;;;;21.10;13.10;;;9.20;99.90;;;;;;5051215;28;20210;-78
2023/11/05 16:27:05;;;;;;;18.33;12.43;;;9.20;99.90;;;;;;5050844;28;20178;-79
2023/11/05 16:29:34;;;;;;;20.10;12.47;;;9.20;99.90;;;;;;5050644;28;20187;-78
2023/11/05 16:32:02;;;;;;;18.63;12.63;;;9.20;99.90;;;;;;5052025;28;20197;-86
2023/11/05 16:34:34;;;;;;;19.13;12.53;;;9.20;99.90;;;;;;5050355;28;20293;-86
2023/11/05 16:37:10;;;;;;;20.20;12.10;;;9.20;99.90;;;;;;5050211;28;20241;-87
2023/11/05 16:39:41;;;;;;;19.57;12.10;;;9.20;99.90;;;;;;5051625;28;20194;-87
2023/11/05 16:42:10;;;;;;;19.57;12.17;;;9.40;99.90;;;;;;5050226;28;20214;-86
2023/11/05 16:44:40;;;;;;;19.17;12.47;;;9.10;99.90;;;;;;5050546;28;20199;-78
2023/11/05 16:47:24;;;;;;;18.33;11.77;;;9.40;99.90;;;;;;5050930;28;20716;-79
2023/11/05 16:50:08;;;;;;;19.87;11.97;;;9.40;99.90;;;;;;5050945;28;20305;-79
2023/11/05 16:52:41;;;;;;;19.87;12.40;;;9.10;99.90;;;;;;5050420;28;20190;-86
2023/11/05 16:55:10;;;;;;;20.77;13.03;;;9.20;99.90;;;;;;5051779;28;20550;-77
2023/11/05 16:57:43;;;;;;;20.40;12.97;;;9.10;99.90;;;;;;5050122;28;20650;-79
2023/11/05 17:00:26;;;;;;;20.77;12.87;;;9.20;99.90;;;;;;5050680;28;20241;-79
2023/11/05 17:02:57;;;;;;;22.40;12.77;;;9.20;99.90;;;;;;5067158;28;20217;-87
2023/11/05 17:05:29;;;;;;;20.63;12.90;;;9.20;99.90;;;;;;5051882;28;20265;-80
2023/11/05 17:07:58;;;;;;;20.20;13.17;;;9.20;99.90;;;;;;5050359;28;20202;-80
2023/11/05 17:10:30;;;;;;;23.13;13.50;;;9.20;99.90;;;;;;5034758;28;20548;-80
2023/11/05 17:12:58;;;;;;;22.23;13.50;;;9.20;99.90;;;;;;5049658;28;20232;-80
2023/11/05 17:15:29;;;;;;;19.70;12.67;;;9.20;99.90;;;;;;5051550;28;20199;-80
2023/11/05 17:18:00;;;;;;;21.40;12.57;;;9.20;99.90;;;;;;5050029;28;20218;-85
2023/11/05 17:20:33;;;;;;;20.10;12.67;;;9.20;99.90;;;;;;5050018;28;20241;-84
2023/11/05 17:23:04;;;;;;;22.03;12.40;;;9.20;99.90;;;;;;5049811;28;20211;-79
2023/11/05 17:25:33;;;;;;;22.33;13.27;;;9.20;99.90;;;;;;5051289;28;20197;-79
2023/11/05 17:28:07;;;;;;;23.03;13.47;;;9.20;99.90;;;;;;5051092;28;20183;-80
2023/11/05 17:30:46;;;;;;;17.87;11.83;;;9.10;99.90;;;;;;5050972;28;20194;-78
2023/11/05 17:33:14;;;;;;;18.97;11.73;;;9.30;99.90;;;;;;5049748;28;20288;-79
2023/11/05 17:35:43;;;;;;;18.03;12.20;;;9.20;99.90;;;;;;5047142;28;20245;-80
2023/11/05 17:38:17;;;;;;;20.27;12.50;;;9.30;99.90;;;;;;5045845;28;20645;-80
2023/11/05 17:40:48;;;;;;;22.10;13.33;;;9.20;99.90;;;;;;5050152;28;20191;-80
2023/11/05 17:43:25;;;;;;;19.20;12.43;;;9.20;99.90;;;;;;5050093;28;20577;-80
2023/11/05 17:45:54;;;;;;;21.17;12.63;;;9.10;99.90;;;;;;5049574;28;20191;-79
2023/11/05 17:48:26;;;;;;;21.03;12.77;;;9.10;99.90;;;;;;5051374;28;20629;-79
2023/11/05 17:50:55;;;;;;;20.90;12.67;;;9.50;99.90;;;;;;5053442;28;20650;-78
2023/11/05 17:53:27;;;;;;;20.23;12.90;;;9.40;99.90;;;;;;5069616;28;20198;-79
2023/11/05 17:56:09;;;;;;;21.17;12.83;;;8.90;99.90;;;;;;5053463;28;20187;-79
2023/11/05 17:58:41;;;;;;;19.87;12.00;;;9.10;99.90;;;;;;5052813;28;20201;-79
2023/11/05 18:01:19;;;;;;;20.97;12.13;;;9.20;99.90;;;;;;5054824;28;20669;-80
2023/11/05 18:03:47;;;;;;;19.23;11.93;;;9.20;99.90;;;;;;5054573;28;20213;-86
2023/11/05 18:06:17;;;;;;;20.03;12.30;;;9.20;99.90;;;;;;5054167;28;20195;-85
2023/11/05 18:08:45;;;;;;;19.73;12.10;;;9.40;99.90;;;;;;5054561;28;20183;-86
2023/11/05 18:11:12;;;;;;;19.60;12.03;;;9.20;99.90;;;;;;5054724;28;20191;-79
2023/11/05 18:13:52;;;;;;;18.80;12.23;;;9.20;99.90;;;;;;5054448;28;20227;-79
2023/11/05 18:16:28;;;;;;;21.60;12.70;;;9.20;99.90;;;;;;5054022;28;20251;-80
2023/11/05 18:19:05;;;;;;;19.90;11.23;;;9.10;99.90;;;;;;4972721;28;20709;-79
2023/11/05 18:21:40;;;;;;;18.30;11.10;;;9.10;99.90;;;;;;4973175;28;20228;-85
2023/11/05 18:24:08;;;;;;;19.83;11.00;;;9.20;99.90;;;;;;4972948;28;20232;-86
2023/11/05 18:26:52;;;;;;;20.30;11.73;;;9.10;99.90;;;;;;4973384;28;20236;-80
2023/11/05 18:29:21;;;;;;;17.80;11.07;;;9.10;99.90;;;;;;4972781;28;20735;-86
2023/11/05 18:31:57;;;;;;;17.90;11.47;;;9.00;99.90;;;;;;4973083;28;20216;-86
2023/11/05 18:34:28;;;;;;;18.70;11.23;;;8.90;99.90;;;;;;4956123;28;20362;-81
2023/11/05 18:37:08;;;;;;;17.00;11.23;;;9.30;99.90;;;;;;4997334;28;20206;-79
2023/11/05 18:39:38;;;;;;;16.90;10.60;;;9.10;99.90;;;;;;5035682;28;20197;-79
2023/11/05 18:42:19;;;;;;;;;;;;;;;;;;;;;
2023/11/05 18:44:52;;;;;;;15.83;10.37;;;8.80;99.90;;;;;;5052594;28;20230;-80
2023/11/05 18:47:34;;;;;;;17.73;10.93;;;8.90;99.90;;;;;;5052481;28;20282;-81
2023/11/05 18:50:09;;;;;;;18.57;11.07;;;8.90;99.90;;;;;;5053291;28;20297;-79
2023/11/05 18:52:41;;;;;;;16.07;10.10;;;8.90;99.90;;;;;;5052892;28;20266;-85
2023/11/05 18:55:14;;;;;;;17.63;11.53;;;8.70;99.90;;;;;;5035354;28;20198;-87
2023/11/05 18:57:47;;;;;;;15.97;10.50;;;8.80;99.90;;;;;;5052248;28;20209;-87
2023/11/05 19:00:24;;;;;;;17.73;11.00;;;8.80;99.90;;;;;;5053612;28;20269;-80
2023/11/05 19:02:58;;;;;;;17.33;11.27;;;8.70;99.90;;;;;;5052192;28;20269;-80
2023/11/05 19:05:27;;;;;;;19.90;11.70;;;8.70;99.90;;;;;;5053531;28;20265;-86
2023/11/05 19:07:59;;;;;;;16.80;10.67;;;8.70;99.90;;;;;;5051985;28;20293;-82
2023/11/05 19:10:35;;;;;;;18.30;11.40;;;8.70;99.90;;;;;;5053229;28;20191;-81
2023/11/05 19:13:18;;;;;;;19.53;11.67;;;8.70;99.90;;;;;;5052609;28;20227;-80
2023/11/05 19:16:08;;;;;;;19.93;11.10;;;8.70;99.90;;;;;;5010465;28;20632;-81
2023/11/05 19:18:49;;;;;;;18.80;11.50;;;8.80;99.90;;;;;;5011174;28;20725;-81
2023/11/05 19:21:33;;;;;;;19.43;11.73;;;8.80;99.90;;;;;;4979836;28;20294;-86
2023/11/05 19:24:12;;;;;;;18.23;11.67;;;8.70;99.90;;;;;;5011478;28;20319;-80
2023/11/05 19:26:54;;;;;;;18.87;11.73;;;8.90;99.90;;;;;;4994265;28;20636;-80
2023/11/05 19:29:25;;;;;;;19.30;11.43;;;8.80;99.90;;;;;;5011057;28;20196;-80
2023/11/05 19:31:53;;;;;;;19.83;12.00;;;8.80;99.90;;;;;;5011024;28;20207;-80
2023/11/05 19:34:25;;;;;;;18.63;11.80;;;8.80;99.90;;;;;;5036129;28;20667;-80
2023/11/05 19:37:00;;;;;;;17.20;11.30;;;8.80;99.90;;;;;;5053245;28;20326;-80
2023/11/05 19:39:28;;;;;;;18.30;11.67;;;8.80;99.90;;;;;;5053259;28;20194;-80
2023/11/05 19:42:15;;;;;;;17.93;10.90;;;8.70;99.90;;;;;;5052893;28;20177;-78
2023/11/05 19:44:48;;;;;;;19.23;11.33;;;8.70;99.90;;;;;;5035445;28;20708;-86
2023/11/05 19:47:19;;;;;;;18.00;11.43;;;8.60;99.90;;;;;;5052680;28;20527;-87
2023/11/05 19:49:47;;;;;;;18.33;11.27;;;8.70;99.90;;;;;;5052981;28;20199;-87
2023/11/05 19:52:20;;;;;;;18.53;10.93;;;8.60;99.90;;;;;;5051083;28;20646;-80
2023/11/05 19:54:55;;;;;;;18.03;10.93;;;8.90;99.90;;;;;;5035621;28;20535;-80
2023/11/05 19:57:36;;;;;;;17.83;11.37;;;8.70;99.90;;;;;;5034795;28;20680;-87
2023/11/05 20:00:05;;;;;;;18.13;10.77;;;8.70;99.90;;;;;;5050840;28;20182;-84
2023/11/05 20:02:36;;;;;;;16.03;10.73;;;8.70;99.90;;;;;;5052278;28;20670;-79
2023/11/05 20:05:13;;;;;;;17.53;10.90;;;8.80;99.90;;;;;;5050851;28;20222;-80
2023/11/05 20:07:45;;;;;;;17.77;11.10;;;8.80;99.90;;;;;;5050876;28;20300;-86
2023/11/05 20:10:21;;;;;;;20.57;11.00;;;9.00;99.90;;;;;;5034819;28;20284;-79
2023/11/05 20:12:55;;;;;;;16.97;10.53;;;8.80;99.90;;;;;;5050222;28;20282;-85
2023/11/05 20:15:26;;;;;;;18.27;10.97;;;8.70;99.90;;;;;;5035111;28;20344;-85
2023/11/05 20:17:54;;;;;;;17.80;10.93;;;8.80;99.90;;;;;;5052911;28;20654;-85
2023/11/05 20:20:26;;;;;;;17.10;10.37;;;8.70;99.90;;;;;;5052752;28;20240;-80
2023/11/05 20:22:57;;;;;;;16.00;10.00;;;8.60;99.90;;;;;;5052087;28;20244;-86
2023/11/05 20:25:39;;;;;;;16.87;10.27;;;8.60;99.90;;;;;;5050331;28;20563;-87
2023/11/05 20:28:26;;;;;;;16.90;10.43;;;8.60;99.90;;;;;;5050951;28;20193;-80
2023/11/05 20:31:12;;;;;;;17.17;10.33;;;8.40;99.90;;;;;;5051655;28;20183;-81
2023/11/05 20:33:44;;;;;;;16.30;10.63;;;8.60;99.90;;;;;;5051626;28;20284;-86
2023/11/05 20:36:12;;;;;;;16.93;10.40;;;8.60;99.90;;;;;;5050459;28;20217;-79
2023/11/05 20:38:43;;;;;;;17.80;10.43;;;8.60;99.90;;;;;;5050903;28;20210;-80
2023/11/05 20:41:11;;;;;;;17.50;10.43;;;8.50;99.90;;;;;;5050110;28;20202;-79
2023/11/05 20:44:03;;;;;;;15.93;10.50;;;8.50;99.90;;;;;;5050432;28;20221;-81
2023/11/05 20:46:41;;;;;;;16.47;10.57;;;8.50;99.90;;;;;;4974101;28;20212;-79
2023/11/05 20:49:16;;;;;;;18.80;11.03;;;8.70;99.90;;;;;;4987705;28;20252;-81
2023/11/05 20:51:58;;;;;;;17.13;10.13;;;8.50;99.90;;;;;;4971221;28;20788;-80
2023/11/05 20:54:31;;;;;;;17.60;10.47;;;8.50;99.90;;;;;;4989406;28;20259;-80
2023/11/05 20:57:03;;;;;;;21.10;11.30;;;8.60;99.90;;;;;;4990192;28;20691;-79
2023/11/05 20:59:39;;;;;;;18.13;10.37;;;8.50;99.90;;;;;;4990064;28;20192;-79
2023/11/05 21:02:07;;;;;;;16.77;10.00;;;8.50;99.90;;;;;;4989196;28;20235;-78
2023/11/05 21:04:45;;;;;;;16.23;10.23;;;8.50;99.90;;;;;;4988682;28;20228;-82
2023/11/05 21:07:24;;;;;;;16.83;10.20;;;8.50;99.90;;;;;;4990030;28;20231;-79
2023/11/05 21:09:57;;;;;;;20.80;11.13;;;8.40;99.90;;;;;;4988696;28;20292;-80
2023/11/05 21:12:34;;;;;;;16.60;11.03;;;8.70;99.90;;;;;;4877845;29;20239;-80
2023/11/05 21:15:15;;;;;;;18.40;10.83;;;8.70;99.90;;;;;;4894255;29;20208;-80
2023/11/05 21:18:11;;;;;;;17.10;9.87;;;8.40;99.90;;;;;;4837905;29;20241;-81
2023/11/05 21:20:45;;;;;;;18.40;11.10;;;8.30;99.90;;;;;;4822905;29;20214;-79
2023/11/05 21:23:13;;;;;;;19.53;11.17;;;8.40;99.90;;;;;;4859726;29;20218;-79
2023/11/05 21:26:00;;;;;;;18.03;11.23;;;8.40;99.90;;;;;;4822716;29;20203;-79
2023/11/05 21:28:28;;;;;;;17.50;11.00;;;8.70;99.90;;;;;;4807857;29;20580;-79
2023/11/05 21:30:56;;;;;;;17.93;10.70;;;8.40;99.90;;;;;;4857033;29;20213;-80
2023/11/05 21:33:30;;;;;;;18.87;11.03;;;8.50;99.90;;;;;;4878474;29;20284;-78
2023/11/05 21:36:18;;;;;;;19.57;11.27;;;8.60;99.90;;;;;;4923666;28;20197;-81
2023/11/05 21:38:54;;;;;;;21.20;10.73;;;8.60;99.90;;;;;;4958184;28;20197;-80